Time;durP1;ratioP1;P1;durP2;ratioP2;P2;SDS_P1;SDS_P2;PMS_P1;PMS_P2;Temp;Humidity;BMP_temperature;BMP_pressure;BME280_temperature;BME280_humidity;BME280_pressure;Samples;Min_cycle;Max_cycle;Signal;HPM_P1;HPM_P2
2023/11/17 00:01:07;;;;;;;51.05;24.80;;;5.80;99.90;;;;;;2584222;54;20072;31
2023/11/17 00:03:41;;;;;;;54.00;26.05;;;5.80;99.90;;;;;;2584394;54;20762;31
2023/11/17 00:06:17;;;;;;;44.58;25.30;;;5.80;99.90;;;;;;2584364;54;20815;31
2023/11/17 00:08:51;;;;;;;44.85;24.80;;;5.90;99.90;;;;;;2584435;54;20130;31
2023/11/17 00:11:25;;;;;;;42.83;24.05;;;5.80;99.90;;;;;;2584634;54;19939;31
2023/11/17 00:13:58;;;;;;;43.88;25.38;;;5.90;99.90;;;;;;2602977;46;20923;31
2023/11/17 00:16:31;;;;;;;40.87;22.57;;;5.90;99.90;;;;;;2584058;54;20040;31
2023/11/17 00:19:05;;;;;;;48.63;24.40;;;5.90;99.90;;;;;;2584021;54;20333;31
2023/11/17 00:21:43;;;;;;;41.17;21.88;;;5.90;99.90;;;;;;2584275;54;20245;31
2023/11/17 00:24:15;;;;;;;39.20;21.15;;;5.90;99.90;;;;;;2584496;54;22178;31
2023/11/17 00:26:49;;;;;;;34.00;18.55;;;5.90;99.90;;;;;;2584145;54;20863;31
2023/11/17 00:29:22;;;;;;;40.65;22.70;;;6.00;99.90;;;;;;2584052;54;21527;31
2023/11/17 00:31:58;;;;;;;54.95;25.45;;;6.00;99.90;;;;;;2584113;54;20026;31
2023/11/17 00:34:30;;;;;;;42.00;22.50;;;6.00;99.90;;;;;;2584119;54;20760;31
2023/11/17 00:37:07;;;;;;;43.00;22.75;;;5.90;99.90;;;;;;2584269;54;20235;31
2023/11/17 00:39:40;;;;;;;43.65;23.42;;;5.90;99.90;;;;;;2602350;46;20027;31
2023/11/17 00:42:13;;;;;;;42.58;22.95;;;5.90;99.90;;;;;;2601879;46;20914;31
2023/11/17 00:44:46;;;;;;;42.50;23.00;;;5.90;99.90;;;;;;2602507;46;20034;31
2023/11/17 00:47:19;;;;;;;42.10;22.55;;;5.90;99.90;;;;;;2593805;39;22190;31
2023/11/17 00:49:55;;;;;;;37.10;19.70;;;5.90;99.90;;;;;;2584170;54;20033;31
2023/11/17 00:52:32;;;;;;;39.63;21.43;;;5.90;99.90;;;;;;2603550;39;22292;31
2023/11/17 00:55:07;;;;;;;41.65;22.45;;;5.90;99.90;;;;;;2584168;54;20892;31
2023/11/17 00:57:41;;;;;;;34.85;18.77;;;5.90;99.90;;;;;;2602669;46;22330;31
2023/11/17 01:00:15;;;;;;;41.50;22.48;;;5.90;99.90;;;;;;2583762;54;19941;31
2023/11/17 01:02:49;;;;;;;39.30;21.10;;;6.00;99.90;;;;;;2584014;54;20045;31
2023/11/17 01:05:24;;;;;;;40.10;22.20;;;5.90;99.90;;;;;;2583715;54;20214;31
2023/11/17 01:08:01;;;;;;;45.55;22.70;;;5.90;99.90;;;;;;2583837;54;20977;31
2023/11/17 01:10:35;;;;;;;41.60;21.00;;;5.90;99.90;;;;;;2584080;54;20079;31
2023/11/17 01:13:09;;;;;;;43.15;22.48;;;6.00;99.90;;;;;;2584144;54;21086;31
2023/11/17 01:15:42;;;;;;;31.55;18.00;;;5.90;99.90;;;;;;2602397;46;20991;31
2023/11/17 01:18:16;;;;;;;36.40;19.90;;;5.90;99.90;;;;;;2590236;46;20871;31
2023/11/17 01:20:50;;;;;;;32.67;19.52;;;6.00;99.90;;;;;;2584123;54;22321;31
2023/11/17 01:23:27;;;;;;;36.28;20.50;;;6.00;99.90;;;;;;2584084;54;20093;31
2023/11/17 01:26:02;;;;;;;32.92;20.35;;;6.00;99.90;;;;;;2583914;54;20085;31
2023/11/17 01:28:35;;;;;;;37.40;21.27;;;6.00;99.90;;;;;;2602887;46;20086;31
2023/11/17 01:31:08;;;;;;;35.65;20.60;;;6.00;99.90;;;;;;2584164;54;20853;31
2023/11/17 01:33:44;;;;;;;39.60;21.30;;;5.90;99.90;;;;;;2584323;39;21950;31
2023/11/17 01:36:20;;;;;;;42.10;20.42;;;5.90;99.90;;;;;;2584047;54;21091;31
2023/11/17 01:38:58;;;;;;;38.28;20.17;;;5.90;99.90;;;;;;2583901;54;19960;31
2023/11/17 01:41:33;;;;;;;44.65;22.30;;;5.90;99.90;;;;;;2588946;39;21462;31
2023/11/17 01:44:08;;;;;;;39.03;20.40;;;5.90;99.90;;;;;;2583929;54;20048;31
2023/11/17 01:46:42;;;;;;;37.05;20.10;;;5.90;99.90;;;;;;2583767;54;22193;31
2023/11/17 01:49:15;;;;;;;40.90;21.40;;;5.90;99.90;;;;;;2583641;54;21471;31
2023/11/17 01:51:49;;;;;;;43.10;22.10;;;6.00;99.90;;;;;;2584424;39;20218;31
2023/11/17 01:54:24;;;;;;;46.65;23.85;;;5.90;99.90;;;;;;2584006;54;20972;31
2023/11/17 01:56:58;;;;;;;38.15;21.35;;;6.00;99.90;;;;;;2583904;54;21586;31
2023/11/17 01:59:32;;;;;;;38.42;21.67;;;6.00;99.90;;;;;;2583834;54;22145;31
2023/11/17 02:02:06;;;;;;;39.45;21.63;;;6.00;99.90;;;;;;2583464;54;20909;31
2023/11/17 02:04:39;;;;;;;41.30;21.48;;;6.00;99.90;;;;;;2583107;54;20748;31
2023/11/17 02:07:18;;;;;;;38.28;17.40;;;6.00;99.90;;;;;;2602080;39;22107;31
2023/11/17 02:10:06;;;;;;;38.60;21.17;;;6.00;99.90;;;;;;2601413;46;20042;31
2023/11/17 02:12:46;;;;;;;33.50;19.50;;;6.00;99.90;;;;;;2583664;54;20060;31
2023/11/17 02:15:28;;;;;;;46.15;21.85;;;6.00;99.90;;;;;;2583986;31;21426;31
2023/11/17 02:18:04;;;;;;;35.67;20.48;;;6.00;99.90;;;;;;2583436;54;20947;31
2023/11/17 02:20:38;;;;;;;40.22;22.45;;;6.00;99.90;;;;;;2583806;54;20038;31
2023/11/17 02:23:15;;;;;;;42.10;22.30;;;6.00;99.90;;;;;;2603306;39;22096;31
2023/11/17 02:25:59;;;;;;;40.58;21.23;;;6.00;99.90;;;;;;2583579;54;20343;31
2023/11/17 02:28:37;;;;;;;43.63;22.92;;;6.00;99.90;;;;;;2583780;54;20046;31
2023/11/17 02:31:17;;;;;;;38.53;21.70;;;6.00;99.90;;;;;;2583550;54;20394;31
2023/11/17 02:33:51;;;;;;;45.60;23.20;;;6.00;99.90;;;;;;2583319;54;21044;31
2023/11/17 02:36:26;;;;;;;43.53;21.20;;;6.00;99.90;;;;;;2601927;46;20109;31
2023/11/17 02:39:12;;;;;;;35.10;21.20;;;6.00;99.90;;;;;;2602285;46;20364;31
2023/11/17 02:41:48;;;;;;;37.35;20.67;;;6.00;99.90;;;;;;2583604;54;21042;31
2023/11/17 02:44:22;;;;;;;37.05;20.50;;;6.00;99.90;;;;;;2583836;54;20147;31
2023/11/17 02:47:03;;;;;;;38.50;20.95;;;6.00;99.90;;;;;;2583689;54;20097;31
2023/11/17 02:49:40;;;;;;;37.33;21.52;;;6.00;99.90;;;;;;2588748;39;20249;31
2023/11/17 02:52:16;;;;;;;41.33;20.83;;;6.00;99.90;;;;;;2583503;54;20925;31
2023/11/17 02:54:50;;;;;;;33.50;19.15;;;6.00;99.90;;;;;;2584005;39;20228;31
2023/11/17 02:57:25;;;;;;;34.17;19.02;;;6.00;99.90;;;;;;2588849;39;20224;31
2023/11/17 02:59:57;;;;;;;38.03;18.58;;;6.00;99.90;;;;;;2584723;54;20977;31
2023/11/17 03:02:32;;;;;;;34.08;16.60;;;;;;;;;;2585866;54;20026;31
2023/11/17 03:05:04;;;;;;;34.50;17.73;;;;;;;;;;2604724;47;20089;31
2023/11/17 03:07:38;;;;;;;34.33;17.27;;;6.00;99.90;;;;;;2585428;54;20961;31
2023/11/17 03:10:12;;;;;;;29.27;16.25;;;6.00;99.90;;;;;;2585252;54;20165;31
2023/11/17 03:12:43;;;;;;;34.40;16.10;;;6.00;99.90;;;;;;2585538;54;20762;31
2023/11/17 03:15:16;;;;;;;27.80;15.50;;;6.00;99.90;;;;;;2585807;54;21158;31
2023/11/17 03:17:52;;;;;;;32.30;16.30;;;6.00;99.90;;;;;;2586205;54;20093;31
2023/11/17 03:20:25;;;;;;;;;;;6.00;99.90;;;;;;2586438;54;20049;31
2023/11/17 03:23:00;;;;;;;22.95;13.40;;;5.90;99.90;;;;;;2605070;46;20463;31
2023/11/17 03:25:39;;;;;;;23.70;13.43;;;5.90;99.90;;;;;;2586599;54;20030;31
2023/11/17 03:28:13;;;;;;;24.05;13.48;;;5.90;99.90;;;;;;2586639;54;20859;31
2023/11/17 03:30:45;;;;;;;22.23;13.15;;;5.90;99.90;;;;;;2684448;39;21489;31
2023/11/17 03:33:21;;;;;;;26.40;13.10;;;5.90;99.90;;;;;;2604914;46;20049;31
2023/11/17 03:35:55;;;;;;;19.75;11.63;;;5.90;99.90;;;;;;2755280;31;21588;31
2023/11/17 03:38:28;;;;;;;23.33;11.65;;;5.90;99.90;;;;;;2586627;54;20979;31
2023/11/17 03:41:03;;;;;;;20.30;10.85;;;5.90;99.90;;;;;;2586342;54;20026;31
2023/11/17 03:43:37;;;;;;;17.63;8.85;;;5.90;99.90;;;;;;2586379;54;20053;31
2023/11/17 03:46:09;;;;;;;13.75;8.43;;;5.90;99.90;;;;;;2586301;54;20913;31
2023/11/17 03:48:44;;;;;;;13.70;7.83;;;5.90;99.90;;;;;;2586169;54;20034;31
2023/11/17 03:51:18;;;;;;;13.05;7.47;;;5.90;99.90;;;;;;2684055;39;22347;31
2023/11/17 03:53:49;;;;;;;16.13;7.40;;;5.90;99.90;;;;;;2604830;46;20857;31
2023/11/17 03:56:22;;;;;;;12.30;6.47;;;5.90;99.90;;;;;;2586434;54;20013;31
2023/11/17 03:58:58;;;;;;;13.10;7.00;;;6.00;99.90;;;;;;2586507;54;20022;31
2023/11/17 04:01:29;;;;;;;12.33;6.07;;;6.00;99.90;;;;;;2684194;39;20444;31
2023/11/17 04:04:05;;;;;;;11.10;6.07;;;6.00;99.90;;;;;;2586171;54;19935;31
2023/11/17 04:06:40;;;;;;;12.50;6.00;;;6.10;99.90;;;;;;2604947;46;21228;31
2023/11/17 04:09:15;;;;;;;11.20;5.72;;;6.10;99.90;;;;;;2586292;54;20659;31
2023/11/17 04:11:48;;;;;;;8.45;4.53;;;6.10;99.90;;;;;;2586301;54;20931;31
2023/11/17 04:14:22;;;;;;;8.20;4.85;;;6.10;99.90;;;;;;2586806;54;20903;31
2023/11/17 04:16:57;;;;;;;10.05;4.30;;;6.10;99.90;;;;;;2586309;54;20032;31
2023/11/17 04:19:34;;;;;;;7.40;4.80;;;6.10;99.90;;;;;;2586250;54;20060;31
2023/11/17 04:22:07;;;;;;;8.65;4.82;;;6.10;99.90;;;;;;2586203;54;20038;31
2023/11/17 04:24:42;;;;;;;7.70;4.30;;;6.10;99.90;;;;;;2604948;46;20914;31
2023/11/17 04:27:14;;;;;;;5.20;3.20;;;6.10;99.90;;;;;;2604719;46;21224;31
2023/11/17 04:29:48;;;;;;;10.00;3.53;;;6.10;99.90;;;;;;2586574;54;20759;31
2023/11/17 04:32:20;;;;;;;6.78;3.65;;;6.10;99.90;;;;;;2586663;54;20882;31
2023/11/17 04:34:56;;;;;;;7.78;4.60;;;6.10;99.90;;;;;;2586382;54;20747;31
2023/11/17 04:37:27;;;;;;;9.20;4.60;;;6.10;99.90;;;;;;2586216;54;20842;31
2023/11/17 04:40:01;;;;;;;12.23;5.22;;;6.10;99.90;;;;;;2586221;54;20148;31
2023/11/17 04:42:33;;;;;;;9.23;5.47;;;6.10;99.90;;;;;;2585987;54;20023;31
2023/11/17 04:45:08;;;;;;;11.50;6.50;;;6.10;99.90;;;;;;2586441;54;20076;31
2023/11/17 04:47:42;;;;;;;13.80;7.33;;;6.10;99.90;;;;;;2586315;54;20988;31
2023/11/17 04:50:18;;;;;;;14.68;7.88;;;6.00;99.90;;;;;;2586493;54;20026;31
2023/11/17 04:52:48;;;;;;;18.53;9.33;;;6.00;99.90;;;;;;2586116;54;20034;31
2023/11/17 04:55:21;;;;;;;17.15;9.77;;;6.00;99.90;;;;;;2604272;46;20053;31
2023/11/17 04:57:54;;;;;;;22.42;10.35;;;6.00;99.90;;;;;;2586280;54;20023;31
2023/11/17 05:00:31;;;;;;;19.17;11.57;;;6.00;99.90;;;;;;2604844;46;20048;31
2023/11/17 05:03:05;;;;;;;20.20;11.80;;;6.00;99.90;;;;;;2586105;54;20034;31
2023/11/17 05:05:42;;;;;;;24.13;12.23;;;6.00;99.90;;;;;;2604799;46;20770;31
2023/11/17 05:08:16;;;;;;;24.50;12.30;;;6.00;99.90;;;;;;2586190;54;20051;31
2023/11/17 05:10:50;;;;;;;26.38;13.00;;;6.00;99.90;;;;;;2604530;46;20088;31
2023/11/17 05:13:25;;;;;;;23.55;12.50;;;5.90;99.90;;;;;;2604594;46;20926;31
2023/11/17 05:16:02;;;;;;;24.13;13.20;;;5.90;99.90;;;;;;2586034;54;20022;31
2023/11/17 05:18:35;;;;;;;28.77;14.15;;;5.90;99.90;;;;;;2586509;54;21262;31
2023/11/17 05:21:13;;;;;;;23.88;12.65;;;5.90;99.90;;;;;;2586285;54;20026;31
2023/11/17 05:23:44;;;;;;;23.30;13.18;;;5.90;99.90;;;;;;2586056;54;20839;31
2023/11/17 05:26:19;;;;;;;25.00;13.55;;;5.90;99.90;;;;;;2604161;46;20112;31
2023/11/17 05:28:53;;;;;;;26.00;13.23;;;5.90;99.90;;;;;;2586127;54;20921;31
2023/11/17 05:31:26;;;;;;;22.95;13.40;;;5.90;99.90;;;;;;2586091;54;20869;31
2023/11/17 05:34:04;;;;;;;27.67;10.65;;;5.80;99.90;;;;;;2585821;54;20097;31
2023/11/17 05:36:40;;;;;;;21.52;12.40;;;5.90;99.90;;;;;;2586094;54;20881;31
2023/11/17 05:39:15;;;;;;;21.10;11.82;;;5.90;99.90;;;;;;2586037;54;20161;31
2023/11/17 05:41:49;;;;;;;19.70;11.40;;;5.90;99.90;;;;;;2586086;54;20778;31
2023/11/17 05:44:22;;;;;;;25.25;12.85;;;5.90;99.90;;;;;;2604438;46;20247;31
2023/11/17 05:46:56;;;;;;;20.98;11.88;;;5.80;99.90;;;;;;2604259;46;20027;31
2023/11/17 05:49:29;;;;;;;21.45;12.85;;;5.70;99.90;;;;;;2586270;54;20758;31
2023/11/17 05:52:04;;;;;;;22.85;11.88;;;5.70;99.90;;;;;;2585832;54;20237;31
2023/11/17 05:54:44;;;;;;;22.48;13.25;;;5.60;99.90;;;;;;2604227;46;20042;31
2023/11/17 05:57:22;;;;;;;21.83;12.40;;;5.50;99.90;;;;;;2585704;54;20026;31
2023/11/17 05:59:57;;;;;;;22.00;11.60;;;5.50;99.90;;;;;;2585911;54;20297;31
2023/11/17 06:02:35;;;;;;;23.23;12.30;;;5.40;99.90;;;;;;2604727;46;20051;31
2023/11/17 06:05:08;;;;;;;22.57;11.33;;;5.40;99.90;;;;;;2585835;54;21195;31
2023/11/17 06:07:43;;;;;;;25.30;12.15;;;5.40;99.90;;;;;;2603932;46;22409;31
2023/11/17 06:10:15;;;;;;;22.95;11.43;;;5.40;99.90;;;;;;2585945;54;20030;31
2023/11/17 06:12:48;;;;;;;23.17;12.13;;;5.40;99.90;;;;;;2586033;54;20956;31
2023/11/17 06:15:26;;;;;;;25.35;12.10;;;5.40;99.90;;;;;;2585960;54;20115;31
2023/11/17 06:18:09;;;;;;;26.58;12.43;;;5.30;99.90;;;;;;2604151;46;20037;31
2023/11/17 06:20:42;;;;;;;25.33;12.20;;;5.30;99.90;;;;;;2585705;54;20485;31
2023/11/17 06:23:18;;;;;;;25.52;12.23;;;5.30;99.90;;;;;;2585630;54;20842;31
2023/11/17 06:25:53;;;;;;;22.95;11.30;;;5.30;99.90;;;;;;2586299;54;20938;31
2023/11/17 06:28:29;;;;;;;22.80;11.60;;;5.20;99.90;;;;;;2585739;54;20888;31
2023/11/17 06:31:06;;;;;;;22.83;9.35;;;5.30;99.90;;;;;;2585742;54;20161;31
2023/11/17 06:33:39;;;;;;;18.63;9.73;;;5.20;99.90;;;;;;2604347;46;21603;31
2023/11/17 06:36:14;;;;;;;16.57;8.70;;;5.20;99.90;;;;;;2683854;39;21527;31
2023/11/17 06:38:51;;;;;;;18.65;9.50;;;5.20;99.90;;;;;;2585853;54;20814;31
2023/11/17 06:41:25;;;;;;;20.45;9.65;;;5.10;99.90;;;;;;2585808;54;20057;31
2023/11/17 06:44:03;;;;;;;16.20;8.90;;;5.10;99.90;;;;;;2682883;39;22350;31
2023/11/17 06:46:35;;;;;;;18.70;9.25;;;5.10;99.90;;;;;;2585685;54;20060;31
2023/11/17 06:49:09;;;;;;;16.90;9.25;;;5.10;99.90;;;;;;2603957;46;20114;31
2023/11/17 06:51:48;;;;;;;20.85;9.57;;;5.10;99.90;;;;;;2585257;54;20052;31
2023/11/17 06:54:27;;;;;;;16.55;8.70;;;5.10;99.90;;;;;;2585657;54;20030;31
2023/11/17 06:57:02;;;;;;;16.85;8.63;;;5.10;99.90;;;;;;2585839;54;20027;31
2023/11/17 06:59:39;;;;;;;17.85;8.70;;;5.10;99.90;;;;;;2584852;54;20857;31
2023/11/17 07:02:13;;;;;;;16.90;8.70;;;5.10;99.90;;;;;;2585537;54;20153;31
2023/11/17 07:04:47;;;;;;;15.40;8.98;;;5.10;99.90;;;;;;2586000;54;20104;31
2023/11/17 07:07:24;;;;;;;15.63;8.23;;;5.10;99.90;;;;;;2585725;54;20030;31
2023/11/17 07:10:01;;;;;;;13.90;7.60;;;5.00;99.90;;;;;;2585554;54;20141;31
2023/11/17 07:12:38;;;;;;;14.13;8.10;;;4.90;99.90;;;;;;2585853;54;20881;31
2023/11/17 07:15:13;;;;;;;16.48;8.20;;;4.90;99.90;;;;;;2585798;54;20038;31
2023/11/17 07:17:47;;;;;;;13.75;7.35;;;4.90;99.90;;;;;;2683496;39;20436;31
2023/11/17 07:20:22;;;;;;;16.55;7.45;;;4.80;99.90;;;;;;2585757;54;20754;31
2023/11/17 07:22:54;;;;;;;15.85;7.25;;;4.80;99.90;;;;;;2585682;54;20887;31
2023/11/17 07:25:31;;;;;;;11.35;6.40;;;4.80;99.90;;;;;;2601761;47;20026;31
2023/11/17 07:28:06;;;;;;;14.05;7.35;;;4.80;99.90;;;;;;2585815;54;20801;31
2023/11/17 07:30:45;;;;;;;10.32;6.00;;;4.90;99.90;;;;;;2591385;47;21204;31
2023/11/17 07:33:18;;;;;;;12.90;6.60;;;4.90;99.90;;;;;;2585592;54;20107;31
2023/11/17 07:35:52;;;;;;;11.30;5.83;;;4.90;99.90;;;;;;2585658;54;20253;31
2023/11/17 07:38:28;;;;;;;11.55;6.82;;;4.90;99.90;;;;;;2585594;54;20031;31
2023/11/17 07:41:07;;;;;;;9.50;5.90;;;5.00;99.90;;;;;;2585793;54;20829;31
2023/11/17 07:43:40;;;;;;;9.18;5.63;;;5.00;99.90;;;;;;2585646;54;20037;31
2023/11/17 07:46:17;;;;;;;9.98;5.50;;;5.10;99.90;;;;;;2585518;54;20777;31
2023/11/17 07:48:52;;;;;;;9.98;5.47;;;5.00;99.90;;;;;;2603807;47;20924;31
2023/11/17 07:51:27;;;;;;;15.63;5.53;;;5.20;99.90;;;;;;2585398;54;20875;31
2023/11/17 07:54:01;;;;;;;11.05;5.00;;;5.30;99.90;;;;;;2585328;54;20378;31
2023/11/17 07:56:37;;;;;;;12.10;5.63;;;5.30;99.90;;;;;;2585719;54;20030;31
2023/11/17 07:59:12;;;;;;;10.80;4.45;;;5.30;99.90;;;;;;2604261;47;20026;31
2023/11/17 08:01:46;;;;;;;7.90;4.40;;;5.20;99.90;;;;;;2585568;54;20901;31
2023/11/17 08:04:20;;;;;;;10.20;5.65;;;5.20;99.90;;;;;;2586156;54;20074;31
2023/11/17 08:06:56;;;;;;;8.20;5.00;;;5.10;99.90;;;;;;2604321;46;20108;31
2023/11/17 08:09:33;;;;;;;10.75;5.22;;;5.10;99.90;;;;;;2585431;54;21026;31
2023/11/17 08:12:11;;;;;;;11.70;5.50;;;5.00;99.90;;;;;;2586583;54;20645;31
2023/11/17 08:14:50;;;;;;;12.23;5.13;;;4.90;99.90;;;;;;2683117;39;21445;31
2023/11/17 08:17:23;;;;;;;10.55;5.70;;;4.80;99.90;;;;;;2586353;54;20905;31
2023/11/17 08:20:00;;;;;;;11.45;5.85;;;4.80;99.90;;;;;;2604350;46;20885;31
2023/11/17 08:22:37;;;;;;;10.25;6.05;;;4.80;99.90;;;;;;2586157;54;20084;31
2023/11/17 08:25:12;;;;;;;11.25;5.25;;;4.80;99.90;;;;;;2586196;54;20026;31
2023/11/17 08:27:50;;;;;;;9.95;5.22;;;4.70;99.90;;;;;;2586303;54;20028;31
2023/11/17 08:30:28;;;;;;;7.03;4.50;;;4.70;99.90;;;;;;2586348;54;20029;31
2023/11/17 08:33:19;;;;;;;8.10;4.93;;;4.70;99.90;;;;;;2604352;46;20029;31
2023/11/17 08:35:57;;;;;;;10.05;4.70;;;4.70;99.90;;;;;;2586438;54;20022;31
2023/11/17 08:38:35;;;;;;;7.40;4.13;;;4.60;99.90;;;;;;2586432;54;20048;31
2023/11/17 08:41:10;;;;;;;7.28;4.40;;;4.60;99.90;;;;;;2586333;54;20952;31
2023/11/17 08:43:48;;;;;;;8.75;4.57;;;4.60;99.90;;;;;;2604680;46;21007;31
2023/11/17 08:46:26;;;;;;;5.30;3.35;;;4.60;99.90;;;;;;2585897;54;20042;31
2023/11/17 08:49:01;;;;;;;6.50;3.67;;;4.50;99.90;;;;;;2586105;54;20154;31
2023/11/17 08:51:35;;;;;;;6.00;3.45;;;4.50;99.90;;;;;;2585346;54;20026;31
2023/11/17 08:54:09;;;;;;;5.87;3.47;;;4.50;99.90;;;;;;2586249;54;20757;31
2023/11/17 08:56:47;;;;;;;5.00;3.40;;;4.40;99.90;;;;;;2586171;54;20242;31
2023/11/17 08:59:25;;;;;;;5.90;4.23;;;4.30;99.90;;;;;;2586007;54;20030;31
2023/11/17 09:01:59;;;;;;;7.75;4.07;;;4.30;99.90;;;;;;2586040;54;20030;31
2023/11/17 09:04:37;;;;;;;6.25;3.90;;;4.20;99.90;;;;;;2586071;54;20023;31
2023/11/17 09:07:12;;;;;;;5.07;3.13;;;4.10;99.90;;;;;;2585330;54;20030;31
2023/11/17 09:09:45;;;;;;;3.10;2.30;;;4.10;99.90;;;;;;2586051;54;20793;31
2023/11/17 09:12:25;;;;;;;3.90;2.20;;;4.00;99.90;;;;;;2586211;54;20246;31
2023/11/17 09:15:01;;;;;;;3.83;1.77;;;3.90;99.90;;;;;;2586167;54;20050;31
2023/11/17 09:17:35;;;;;;;1.50;1.30;;;3.90;99.90;;;;;;2586222;54;20903;31
2023/11/17 09:20:13;;;;;;;2.92;1.77;;;3.90;99.90;;;;;;2585797;54;21706;31
2023/11/17 09:22:47;;;;;;;2.35;1.55;;;4.00;99.90;;;;;;2585976;54;20033;31
2023/11/17 09:25:23;;;;;;;3.28;1.90;;;3.90;99.90;;;;;;2684165;39;22336;31
2023/11/17 09:27:58;;;;;;;2.95;1.95;;;3.90;99.90;;;;;;2604719;46;20843;31
2023/11/17 09:30:38;;;;;;;4.43;2.50;;;3.90;99.90;;;;;;2604039;46;20054;31
2023/11/17 09:33:13;;;;;;;3.40;2.00;;;3.90;99.90;;;;;;2586085;54;19934;31
2023/11/17 09:35:50;;;;;;;5.23;2.90;;;3.80;99.90;;;;;;2586125;54;20046;31
2023/11/17 09:38:26;;;;;;;2.60;1.90;;;3.80;99.90;;;;;;2604552;46;20763;31
2023/11/17 09:41:12;;;;;;;2.90;2.05;;;3.80;99.90;;;;;;2586036;54;20238;31
2023/11/17 09:46:30;;;;;;;2.70;1.83;;;3.90;99.90;;;;;;2586154;54;20247;31
2023/11/17 09:49:05;;;;;;;5.35;2.90;;;3.90;99.90;;;;;;2604471;46;20092;31
2023/11/17 09:51:37;;;;;;;4.50;2.30;;;4.00;99.90;;;;;;2604743;46;20037;31
2023/11/17 09:54:15;;;;;;;3.88;2.03;;;4.00;99.90;;;;;;2702241;39;21635;31
2023/11/17 09:56:56;;;;;;;4.85;3.30;;;4.10;99.90;;;;;;2585954;54;20866;31
2023/11/17 10:15:06;;;;;;;4.60;2.27;;;4.60;99.90;;;;;;2584679;54;20038;31
2023/11/17 10:17:51;;;;;;;4.00;2.40;;;4.60;99.90;;;;;;2585098;54;20030;31
2023/11/17 10:20:35;;;;;;;4.10;2.58;;;4.60;99.90;;;;;;2585791;54;20064;31
2023/11/17 10:23:15;;;;;;;5.03;2.72;;;4.50;99.90;;;;;;2604140;46;20022;31
2023/11/17 10:26:02;;;;;;;3.90;2.50;;;4.50;99.90;;;;;;2604513;46;20026;31
2023/11/17 10:28:36;;;;;;;6.30;3.40;;;4.50;99.90;;;;;;2585949;54;20053;31
2023/11/17 10:31:12;;;;;;;5.40;3.25;;;4.50;99.90;;;;;;2585878;54;20594;31
2023/11/17 10:52:52;;;;;;;6.72;4.38;;;4.50;99.90;;;;;;2584856;54;20038;31
2023/11/17 10:55:36;;;;;;;6.20;4.23;;;4.50;99.90;;;;;;2585742;54;20030;31
2023/11/17 11:04:32;;;;;;;3.97;3.05;;;4.30;99.90;;;;;;2584888;54;20038;31
2023/11/17 11:07:14;;;;;;;6.25;4.50;;;4.30;99.90;;;;;;2604180;47;20902;31
2023/11/17 11:10:01;;;;;;;6.00;3.30;;;4.30;99.90;;;;;;2585570;54;20775;31
2023/11/17 11:12:39;;;;;;;6.05;4.22;;;4.20;99.90;;;;;;2604037;47;19977;31
2023/11/17 11:15:17;;;;;;;6.07;3.83;;;4.30;99.90;;;;;;2585258;54;20861;31
2023/11/17 11:17:55;;;;;;;7.35;4.40;;;4.30;99.90;;;;;;2585611;54;22408;31
2023/11/17 11:20:29;;;;;;;7.60;4.30;;;4.20;99.90;;;;;;2603716;47;20881;31
2023/11/17 11:23:05;;;;;;;6.28;4.30;;;4.30;99.90;;;;;;2585791;54;20910;31
2023/11/17 11:25:42;;;;;;;7.55;4.47;;;4.30;99.90;;;;;;2603867;47;20026;31
2023/11/17 11:28:21;;;;;;;6.93;4.00;;;4.20;99.90;;;;;;2604012;47;20881;31
2023/11/17 11:30:54;;;;;;;6.43;4.28;;;4.20;99.90;;;;;;2585557;54;20032;31
2023/11/17 11:36:43;;;;;;;4.68;3.03;;;4.20;99.90;;;;;;2584769;54;20023;31
2023/11/17 11:39:17;;;;;;;5.20;3.40;;;4.10;99.90;;;;;;2586308;47;20848;31
2023/11/17 11:41:57;;;;;;;4.80;3.50;;;4.10;99.90;;;;;;2586572;54;20803;31
2023/11/17 11:44:33;;;;;;;6.20;3.60;;;4.10;99.90;;;;;;2585616;54;20867;31
2023/11/17 11:47:08;;;;;;;5.57;3.40;;;4.10;99.90;;;;;;2586544;54;20899;31
2023/11/17 11:49:44;;;;;;;5.93;3.55;;;4.10;99.90;;;;;;2586280;54;20239;31
2023/11/17 11:52:26;;;;;;;4.15;3.00;;;4.10;99.90;;;;;;2586569;54;20030;31
2023/11/17 12:03:54;;;;;;;5.97;3.10;;;4.30;99.90;;;;;;2586248;54;20863;31
2023/11/17 12:06:45;;;;;;;4.35;2.80;;;4.30;99.90;;;;;;2586212;54;20265;31
2023/11/17 12:15:33;;;;;;;3.60;2.70;;;4.40;99.90;;;;;;2586419;54;20846;31
2023/11/17 12:29:27;;;;;;;4.68;2.40;;;4.30;99.90;;;;;;2586305;54;20960;31
2023/11/17 12:41:19;;;;;;;4.18;2.55;;;4.30;99.90;;;;;;2604906;54;20022;31
2023/11/17 12:43:55;;;;;;;4.20;2.58;;;4.40;99.90;;;;;;2586485;54;20986;31
2023/11/17 12:46:35;;;;;;;;;;;4.40;99.90;;;;;;2586505;54;20781;31
2023/11/17 12:49:12;;;;;;;2.60;1.80;;;4.40;99.90;;;;;;2586018;54;20798;31
2023/11/17 12:51:49;;;;;;;2.67;2.05;;;4.40;99.90;;;;;;2586235;54;20106;31
2023/11/17 12:54:26;;;;;;;4.25;2.45;;;4.40;99.90;;;;;;2585862;54;20026;31
2023/11/17 12:57:17;;;;;;;3.45;2.40;;;4.40;99.90;;;;;;2589676;46;22501;31
2023/11/17 12:59:52;;;;;;;3.03;2.03;;;4.40;99.90;;;;;;2585340;54;20647;31
2023/11/17 13:02:31;;;;;;;2.55;1.80;;;4.40;99.90;;;;;;2585879;54;20034;31
2023/11/17 13:05:07;;;;;;;2.90;1.60;;;4.40;99.90;;;;;;2585305;54;20026;31
2023/11/17 13:07:42;;;;;;;2.47;1.80;;;4.50;99.90;;;;;;2586285;54;20073;31
2023/11/17 13:10:13;;;;;;;3.17;1.92;;;4.40;99.90;;;;;;2585938;54;20109;31
2023/11/17 13:12:52;;;;;;;3.10;2.10;;;4.50;99.90;;;;;;2604963;46;20031;31
2023/11/17 13:15:27;;;;;;;3.00;2.15;;;4.50;99.90;;;;;;2585969;54;20068;31
2023/11/17 13:18:05;;;;;;;3.55;2.40;;;4.50;99.90;;;;;;2585951;54;20805;31
2023/11/17 13:20:41;;;;;;;4.28;2.55;;;4.50;99.90;;;;;;2586201;54;20810;31
2023/11/17 13:23:16;;;;;;;4.72;2.67;;;4.50;99.90;;;;;;2585951;54;20046;31
2023/11/17 13:26:05;;;;;;;4.22;2.17;;;4.50;99.90;;;;;;2585981;54;20030;31
2023/11/17 13:28:41;;;;;;;2.58;1.92;;;4.50;99.90;;;;;;2585865;54;20034;31
2023/11/17 13:31:21;;;;;;;3.50;2.33;;;4.50;99.90;;;;;;2683841;39;20476;31
2023/11/17 13:34:05;;;;;;;3.03;2.15;;;4.50;99.90;;;;;;2585941;54;20929;31
2023/11/17 13:36:38;;;;;;;2.57;2.00;;;4.50;99.90;;;;;;2586065;54;20080;31
2023/11/17 13:39:21;;;;;;;3.10;2.15;;;4.50;99.90;;;;;;2604419;46;20760;31
2023/11/17 13:42:19;;;;;;;4.25;2.55;;;4.50;99.90;;;;;;2604582;46;20174;31
2023/11/17 13:44:55;;;;;;;3.80;2.40;;;4.40;99.90;;;;;;2585835;54;20925;31
2023/11/17 13:47:33;;;;;;;3.92;2.38;;;4.40;99.90;;;;;;2585916;54;20022;31
2023/11/17 13:53:17;;;;;;;3.67;2.40;;;4.40;99.90;;;;;;2585705;54;20022;31
2023/11/17 13:58:29;;;;;;;2.45;1.65;;;4.50;99.90;;;;;;2604717;46;20076;31
2023/11/17 14:01:07;;;;;;;1.75;1.55;;;4.40;99.90;;;;;;2683545;39;20479;31
2023/11/17 14:03:44;;;;;;;3.33;2.00;;;4.40;99.90;;;;;;2585689;54;20081;31
2023/11/17 14:06:20;;;;;;;3.40;2.35;;;4.40;99.90;;;;;;2585993;54;21261;31
2023/11/17 14:08:57;;;;;;;2.72;1.95;;;4.40;99.90;;;;;;2746385;31;20268;31
2023/11/17 14:11:29;;;;;;;4.15;2.25;;;4.40;99.90;;;;;;2604693;46;20085;31
2023/11/17 14:14:09;;;;;;;5.90;2.08;;;4.40;99.90;;;;;;2585845;54;21062;31
2023/11/17 14:16:49;;;;;;;3.85;2.25;;;4.50;99.90;;;;;;2585927;54;20900;31
2023/11/17 14:19:35;;;;;;;4.93;2.30;;;4.50;99.90;;;;;;2585742;54;20774;31
2023/11/17 14:27:59;;;;;;;4.28;2.28;;;4.50;99.90;;;;;;2585701;54;20928;31
2023/11/17 14:30:34;;;;;;;4.70;2.78;;;4.50;99.90;;;;;;2586034;54;20872;31
2023/11/17 14:33:07;;;;;;;3.25;2.13;;;4.50;99.90;;;;;;2585935;54;20915;31
2023/11/17 14:35:49;;;;;;;3.37;2.10;;;4.50;99.90;;;;;;2585690;54;20026;31
2023/11/17 14:38:25;;;;;;;3.37;2.20;;;4.50;99.90;;;;;;2586157;54;20774;31
2023/11/17 14:41:01;;;;;;;3.25;2.20;;;4.50;99.90;;;;;;2585589;54;20250;31
2023/11/17 14:43:38;;;;;;;3.58;2.40;;;4.50;99.90;;;;;;2585589;54;20084;31
2023/11/17 14:46:19;;;;;;;3.20;2.25;;;4.50;99.90;;;;;;2603866;46;20081;31
2023/11/17 14:48:52;;;;;;;4.05;2.38;;;4.50;99.90;;;;;;2585952;54;20861;31
2023/11/17 14:51:26;;;;;;;3.05;2.10;;;4.50;99.90;;;;;;2585965;54;20947;31
2023/11/17 14:54:00;;;;;;;4.15;2.25;;;4.60;99.90;;;;;;2586234;54;20964;31
2023/11/17 14:56:33;;;;;;;3.42;1.88;;;4.60;99.90;;;;;;2585918;54;20030;31
2023/11/17 14:59:12;;;;;;;3.05;1.95;;;4.60;99.90;;;;;;2604319;46;20112;31
2023/11/17 15:01:49;;;;;;;2.70;1.77;;;4.60;99.90;;;;;;2585778;54;20878;31
2023/11/17 15:04:34;;;;;;;4.15;1.95;;;4.60;99.90;;;;;;2585610;54;20038;31
2023/11/17 15:07:09;;;;;;;3.58;1.65;;;4.60;99.90;;;;;;2585975;54;20026;31
2023/11/17 15:09:54;;;;;;;4.75;1.83;;;4.60;99.90;;;;;;2603915;47;20026;31
2023/11/17 15:24:49;;;;;;;2.92;1.92;;;4.50;99.90;;;;;;2586805;54;20855;31
2023/11/17 15:33:12;;;;;;;3.80;1.85;;;4.40;99.90;;;;;;2586669;54;20930;31
2023/11/17 15:35:50;;;;;;;2.67;1.90;;;4.40;99.90;;;;;;2605102;46;20068;31